Terminal Aerodrome Forecast
Issued by NWS

Home | Current Version | Previous Version | Text Only | Print | Product List | Glossary On
Versions: 1 2 3 4 5 6 7 8 9 10 11 12 13 14
225
FTPA31 PHFO 252340
TAFHJH
TAF
PHJH 252340Z 2600/2624 26008KT P6SM VCSH FEW015 SCT030 BKN080
     FM260500 12006KT P6SM FEW020 SCT040 BKN120
     FM262000 04010KT P6SM FEW025 SCT050
      AMD NOT SKED AFT 260400=

USA.gov is the U.S. government's official web portal to all federal, state and local government web resources and services.